sensor_id;sensor_type;location;lat;lon;timestamp;pressure;altitude;pressure_sealevel;temperature;humidity
70841;BME280;58465;51.534;9.934;2023-05-22T00:01:21;99746.84;;;21.12;53.45
70841;BME280;58465;51.534;9.934;2023-05-22T00:04:18;99750.31;;;21.14;53.57
70841;BME280;58465;51.534;9.934;2023-05-22T00:06:46;99746.41;;;21.18;53.25
70841;BME280;58465;51.534;9.934;2023-05-22T00:09:12;99749.00;;;21.07;53.71
70841;BME280;58465;51.534;9.934;2023-05-22T00:11:37;99757.28;;;21.18;53.51
70841;BME280;58465;51.534;9.934;2023-05-22T00:14:03;99749.81;;;21.22;53.64
70841;BME280;58465;51.534;9.934;2023-05-22T00:16:29;99756.97;;;21.23;53.25
70841;BME280;58465;51.534;9.934;2023-05-22T00:18:54;99749.13;;;21.18;53.72
70841;BME280;58465;51.534;9.934;2023-05-22T00:21:19;99749.69;;;21.23;53.36
70841;BME280;58465;51.534;9.934;2023-05-22T00:23:45;99748.16;;;21.19;53.54
70841;BME280;58465;51.534;9.934;2023-05-22T00:26:13;99744.00;;;21.14;53.82
70841;BME280;58465;51.534;9.934;2023-05-22T00:28:40;99747.47;;;21.16;53.52
70841;BME280;58465;51.534;9.934;2023-05-22T00:31:05;99747.47;;;21.03;53.84
70841;BME280;58465;51.534;9.934;2023-05-22T00:33:31;99744.75;;;20.90;54.74
70841;BME280;58465;51.534;9.934;2023-05-22T00:35:58;99744.09;;;20.87;54.61
70841;BME280;58465;51.534;9.934;2023-05-22T00:38:31;99747.78;;;20.98;54.56
70841;BME280;58465;51.534;9.934;2023-05-22T00:40:58;99751.38;;;20.99;54.47
70841;BME280;58465;51.534;9.934;2023-05-22T00:43:24;99751.91;;;20.91;54.61
70841;BME280;58465;51.534;9.934;2023-05-22T00:45:49;99752.78;;;20.92;54.29
70841;BME280;58465;51.534;9.934;2023-05-22T00:48:15;99756.03;;;20.84;54.81
70841;BME280;58465;51.534;9.934;2023-05-22T00:50:41;99750.47;;;20.73;55.36
70841;BME280;58465;51.534;9.934;2023-05-22T00:53:06;99749.41;;;20.76;55.09
70841;BME280;58465;51.534;9.934;2023-05-22T00:55:32;99750.38;;;20.74;55.38
70841;BME280;58465;51.534;9.934;2023-05-22T00:57:57;99752.13;;;20.76;55.51
70841;BME280;58465;51.534;9.934;2023-05-22T01:00:23;99754.59;;;20.79;55.43
70841;BME280;58465;51.534;9.934;2023-05-22T01:02:49;99750.28;;;20.76;55.55
70841;BME280;58465;51.534;9.934;2023-05-22T01:05:15;99759.78;;;20.69;55.92
70841;BME280;58465;51.534;9.934;2023-05-22T01:07:43;99760.53;;;20.58;56.43
70841;BME280;58465;51.534;9.934;2023-05-22T01:10:09;99758.59;;;20.60;56.31
70841;BME280;58465;51.534;9.934;2023-05-22T01:15:09;99758.88;;;20.43;56.50
70841;BME280;58465;51.534;9.934;2023-05-22T01:20:38;99762.09;;;20.35;57.19
70841;BME280;58465;51.534;9.934;2023-05-22T01:23:17;99763.22;;;20.31;56.61
70841;BME280;58465;51.534;9.934;2023-05-22T01:31:38;99763.69;;;20.11;58.01
70841;BME280;58465;51.534;9.934;2023-05-22T01:34:06;99764.97;;;20.06;58.36
70841;BME280;58465;51.534;9.934;2023-05-22T01:36:35;99763.31;;;20.03;58.78
70841;BME280;58465;51.534;9.934;2023-05-22T01:39:02;99764.50;;;19.99;58.57
70841;BME280;58465;51.534;9.934;2023-05-22T01:41:31;99751.66;;;19.88;58.67
70841;BME280;58465;51.534;9.934;2023-05-22T01:43:58;99756.41;;;19.85;59.04
70841;BME280;58465;51.534;9.934;2023-05-22T01:46:26;99758.06;;;19.87;58.62
70841;BME280;58465;51.534;9.934;2023-05-22T01:48:51;99755.72;;;19.81;59.02
70841;BME280;58465;51.534;9.934;2023-05-22T01:51:52;99754.84;;;19.81;59.22
70841;BME280;58465;51.534;9.934;2023-05-22T01:54:31;99757.88;;;19.76;59.13
70841;BME280;58465;51.534;9.934;2023-05-22T01:57:17;99758.16;;;19.72;59.53
70841;BME280;58465;51.534;9.934;2023-05-22T01:59:48;99758.47;;;19.67;59.44
70841;BME280;58465;51.534;9.934;2023-05-22T02:02:20;99752.00;;;19.55;60.25
70841;BME280;58465;51.534;9.934;2023-05-22T02:04:51;99747.53;;;19.54;60.26
70841;BME280;58465;51.534;9.934;2023-05-22T02:07:21;99750.25;;;19.54;60.22
70841;BME280;58465;51.534;9.934;2023-05-22T02:09:47;99753.72;;;19.56;60.41
70841;BME280;58465;51.534;9.934;2023-05-22T02:12:14;99748.81;;;19.49;60.35
70841;BME280;58465;51.534;9.934;2023-05-22T02:14:41;99748.00;;;19.47;60.34
70841;BME280;58465;51.534;9.934;2023-05-22T02:17:07;99738.22;;;19.44;60.59
70841;BME280;58465;51.534;9.934;2023-05-22T02:19:35;99746.84;;;19.37;61.05
70841;BME280;58465;51.534;9.934;2023-05-22T02:22:01;99736.97;;;19.36;60.80
70841;BME280;58465;51.534;9.934;2023-05-22T02:24:28;99734.84;;;19.26;61.06
70841;BME280;58465;51.534;9.934;2023-05-22T02:26:54;99739.78;;;19.20;61.48
70841;BME280;58465;51.534;9.934;2023-05-22T02:29:20;99734.47;;;19.18;61.34
70841;BME280;58465;51.534;9.934;2023-05-22T02:31:45;99730.28;;;19.13;62.07
70841;BME280;58465;51.534;9.934;2023-05-22T02:34:10;99729.81;;;19.06;62.33
70841;BME280;58465;51.534;9.934;2023-05-22T02:36:36;99733.28;;;19.08;62.09
70841;BME280;58465;51.534;9.934;2023-05-22T02:39:01;99736.19;;;19.05;62.38
70841;BME280;58465;51.534;9.934;2023-05-22T02:41:26;99728.38;;;19.01;62.47
70841;BME280;58465;51.534;9.934;2023-05-22T02:43:52;99732.03;;;19.00;62.73
70841;BME280;58465;51.534;9.934;2023-05-22T02:46:17;99729.91;;;18.90;63.18
70841;BME280;58465;51.534;9.934;2023-05-22T02:48:42;99727.09;;;18.92;62.82
70841;BME280;58465;51.534;9.934;2023-05-22T02:51:09;99719.56;;;18.83;63.23
70841;BME280;58465;51.534;9.934;2023-05-22T02:53:35;99724.75;;;18.86;63.00
70841;BME280;58465;51.534;9.934;2023-05-22T02:56:07;99726.78;;;18.82;62.88
70841;BME280;58465;51.534;9.934;2023-05-22T02:58:34;99723.56;;;18.76;62.93
70841;BME280;58465;51.534;9.934;2023-05-22T03:01:00;99725.63;;;18.72;63.38
70841;BME280;58465;51.534;9.934;2023-05-22T03:03:25;99726.28;;;18.76;63.26
70841;BME280;58465;51.534;9.934;2023-05-22T03:05:50;99722.22;;;18.69;63.44
70841;BME280;58465;51.534;9.934;2023-05-22T03:08:22;99716.22;;;18.64;64.25
70841;BME280;58465;51.534;9.934;2023-05-22T03:10:47;99719.69;;;18.66;64.08
70841;BME280;58465;51.534;9.934;2023-05-22T03:13:12;99717.94;;;18.65;64.07
70841;BME280;58465;51.534;9.934;2023-05-22T03:15:38;99714.81;;;18.57;64.39
70841;BME280;58465;51.534;9.934;2023-05-22T03:18:03;99712.91;;;18.59;64.26
70841;BME280;58465;51.534;9.934;2023-05-22T03:20:28;99712.03;;;18.58;64.19
70841;BME280;58465;51.534;9.934;2023-05-22T03:22:53;99714.06;;;18.54;64.39
70841;BME280;58465;51.534;9.934;2023-05-22T03:25:19;99715.97;;;18.52;64.58
70841;BME280;58465;51.534;9.934;2023-05-22T03:27:45;99714.13;;;18.53;64.55
70841;BME280;58465;51.534;9.934;2023-05-22T03:30:11;99710.56;;;18.52;64.69
70841;BME280;58465;51.534;9.934;2023-05-22T03:32:37;99712.66;;;18.47;64.52
70841;BME280;58465;51.534;9.934;2023-05-22T03:35:03;99709.00;;;18.48;64.45
70841;BME280;58465;51.534;9.934;2023-05-22T03:37:29;99715.19;;;18.50;64.23
70841;BME280;58465;51.534;9.934;2023-05-22T03:39:54;99707.53;;;18.43;64.70
70841;BME280;58465;51.534;9.934;2023-05-22T03:42:19;99709.47;;;18.41;65.02
70841;BME280;58465;51.534;9.934;2023-05-22T03:44:44;99714.16;;;18.37;65.30
70841;BME280;58465;51.534;9.934;2023-05-22T03:47:10;99705.66;;;18.29;65.18
70841;BME280;58465;51.534;9.934;2023-05-22T03:49:35;99704.50;;;18.33;65.35
70841;BME280;58465;51.534;9.934;2023-05-22T03:52:01;99710.72;;;18.35;65.27
70841;BME280;58465;51.534;9.934;2023-05-22T03:54:26;99712.72;;;18.32;65.21
70841;BME280;58465;51.534;9.934;2023-05-22T03:56:51;99713.59;;;18.32;65.29
70841;BME280;58465;51.534;9.934;2023-05-22T03:59:17;99712.78;;;18.30;65.18
70841;BME280;58465;51.534;9.934;2023-05-22T04:01:42;99702.91;;;18.15;65.44
70841;BME280;58465;51.534;9.934;2023-05-22T04:04:07;99702.16;;;18.27;65.05
70841;BME280;58465;51.534;9.934;2023-05-22T04:06:33;99708.75;;;18.37;64.87
70841;BME280;58465;51.534;9.934;2023-05-22T04:09:07;99715.44;;;18.46;64.53
70841;BME280;58465;51.534;9.934;2023-05-22T04:11:33;99707.38;;;18.30;64.81
70841;BME280;58465;51.534;9.934;2023-05-22T04:14:02;99719.41;;;18.40;64.69
70841;BME280;58465;51.534;9.934;2023-05-22T04:16:27;99721.84;;;18.45;64.44
70841;BME280;58465;51.534;9.934;2023-05-22T04:18:52;99725.03;;;18.51;64.20
70841;BME280;58465;51.534;9.934;2023-05-22T04:21:17;99727.31;;;18.59;63.72
70841;BME280;58465;51.534;9.934;2023-05-22T04:23:43;99730.03;;;18.59;63.93
70841;BME280;58465;51.534;9.934;2023-05-22T04:26:08;99728.41;;;18.71;63.87
70841;BME280;58465;51.534;9.934;2023-05-22T04:28:34;99730.81;;;18.75;63.58
70841;BME280;58465;51.534;9.934;2023-05-22T04:31:00;99731.75;;;18.60;64.05
70841;BME280;58465;51.534;9.934;2023-05-22T04:33:25;99730.72;;;18.77;63.23
70841;BME280;58465;51.534;9.934;2023-05-22T04:35:50;99729.59;;;18.81;63.03
70841;BME280;58465;51.534;9.934;2023-05-22T04:38:16;99735.88;;;18.81;63.07
70841;BME280;58465;51.534;9.934;2023-05-22T04:40:42;99738.50;;;18.97;62.47
70841;BME280;58465;51.534;9.934;2023-05-22T04:43:08;99735.41;;;18.89;62.72
70841;BME280;58465;51.534;9.934;2023-05-22T04:45:35;99732.13;;;18.98;62.67
70841;BME280;58465;51.534;9.934;2023-05-22T04:48:00;99738.81;;;19.21;61.98
70841;BME280;58465;51.534;9.934;2023-05-22T04:50:26;99739.09;;;19.16;62.16
70841;BME280;58465;51.534;9.934;2023-05-22T04:52:54;99737.00;;;19.21;62.10
70841;BME280;58465;51.534;9.934;2023-05-22T04:55:19;99749.38;;;19.40;61.33
70841;BME280;58465;51.534;9.934;2023-05-22T04:57:46;99745.88;;;19.38;61.51
70841;BME280;58465;51.534;9.934;2023-05-22T05:00:11;99748.41;;;19.55;61.13
70841;BME280;58465;51.534;9.934;2023-05-22T05:02:38;99757.13;;;19.60;61.03
70841;BME280;58465;51.534;9.934;2023-05-22T05:05:03;99738.31;;;19.71;60.33
70841;BME280;58465;51.534;9.934;2023-05-22T05:07:29;99743.19;;;19.66;60.39
70841;BME280;58465;51.534;9.934;2023-05-22T05:09:54;99732.34;;;19.66;60.74
70841;BME280;58465;51.534;9.934;2023-05-22T05:12:19;99731.38;;;19.67;60.67
70841;BME280;58465;51.534;9.934;2023-05-22T05:14:45;99726.72;;;19.69;59.96
70841;BME280;58465;51.534;9.934;2023-05-22T05:17:10;99731.06;;;19.72;60.22
70841;BME280;58465;51.534;9.934;2023-05-22T05:19:35;99728.00;;;19.90;59.50
70841;BME280;58465;51.534;9.934;2023-05-22T05:22:00;99732.81;;;19.99;59.48
70841;BME280;58465;51.534;9.934;2023-05-22T05:24:26;99735.06;;;20.07;59.32
70841;BME280;58465;51.534;9.934;2023-05-22T05:26:51;99729.66;;;20.20;58.96
70841;BME280;58465;51.534;9.934;2023-05-22T05:29:17;99731.97;;;20.26;59.13
70841;BME280;58465;51.534;9.934;2023-05-22T05:31:42;99730.78;;;20.30;58.92
70841;BME280;58465;51.534;9.934;2023-05-22T05:34:07;99725.97;;;20.35;58.46
70841;BME280;58465;51.534;9.934;2023-05-22T05:36:33;99731.16;;;20.38;58.79
70841;BME280;58465;51.534;9.934;2023-05-22T05:38:58;99724.47;;;20.44;58.69
70841;BME280;58465;51.534;9.934;2023-05-22T05:41:25;99735.00;;;20.48;58.41
70841;BME280;58465;51.534;9.934;2023-05-22T05:43:50;99740.91;;;20.67;58.08
70841;BME280;58465;51.534;9.934;2023-05-22T05:46:16;99734.31;;;20.71;57.88
70841;BME280;58465;51.534;9.934;2023-05-22T05:48:42;99742.00;;;20.78;57.70
70841;BME280;58465;51.534;9.934;2023-05-22T05:51:08;99743.78;;;20.91;57.43
70841;BME280;58465;51.534;9.934;2023-05-22T05:53:33;99743.56;;;20.94;57.33
70841;BME280;58465;51.534;9.934;2023-05-22T05:56:00;99743.22;;;20.99;57.41
70841;BME280;58465;51.534;9.934;2023-05-22T05:58:25;99750.41;;;21.00;57.48
70841;BME280;58465;51.534;9.934;2023-05-22T06:00:50;99746.50;;;21.04;57.26
70841;BME280;58465;51.534;9.934;2023-05-22T06:03:16;99746.91;;;20.98;57.89
70841;BME280;58465;51.534;9.934;2023-05-22T06:05:41;99732.72;;;20.94;57.91
70841;BME280;58465;51.534;9.934;2023-05-22T06:08:07;99732.59;;;21.08;57.64
70841;BME280;58465;51.534;9.934;2023-05-22T06:10:32;99741.31;;;21.26;57.48
70841;BME280;58465;51.534;9.934;2023-05-22T06:12:58;99737.06;;;21.35;56.85
70841;BME280;58465;51.534;9.934;2023-05-22T06:15:23;99737.50;;;21.41;56.95
70841;BME280;58465;51.534;9.934;2023-05-22T06:17:48;99731.63;;;21.60;56.58
70841;BME280;58465;51.534;9.934;2023-05-22T06:20:13;99731.50;;;21.62;56.02
70841;BME280;58465;51.534;9.934;2023-05-22T06:22:39;99732.31;;;21.75;55.42
70841;BME280;58465;51.534;9.934;2023-05-22T06:25:05;99732.59;;;22.08;54.84
70841;BME280;58465;51.534;9.934;2023-05-22T06:27:32;99724.94;;;22.13;54.30
70841;BME280;58465;51.534;9.934;2023-05-22T06:29:57;99729.97;;;22.31;53.84
70841;BME280;58465;51.534;9.934;2023-05-22T06:32:24;99736.22;;;22.68;52.98
70841;BME280;58465;51.534;9.934;2023-05-22T06:34:49;99738.72;;;23.28;51.59
70841;BME280;58465;51.534;9.934;2023-05-22T06:37:14;99734.66;;;23.45;50.93
70841;BME280;58465;51.534;9.934;2023-05-22T06:39:40;99729.84;;;23.71;50.62
70841;BME280;58465;51.534;9.934;2023-05-22T06:42:05;99725.75;;;23.76;50.12
70841;BME280;58465;51.534;9.934;2023-05-22T06:44:31;99732.06;;;23.43;50.68
70841;BME280;58465;51.534;9.934;2023-05-22T06:46:56;99731.47;;;23.51;50.83
70841;BME280;58465;51.534;9.934;2023-05-22T06:49:22;99735.66;;;23.55;50.81
70841;BME280;58465;51.534;9.934;2023-05-22T06:51:47;99726.88;;;23.62;50.35
70841;BME280;58465;51.534;9.934;2023-05-22T06:54:12;99726.47;;;23.34;51.09
70841;BME280;58465;51.534;9.934;2023-05-22T06:56:41;99731.94;;;23.45;50.60
70841;BME280;58465;51.534;9.934;2023-05-22T06:59:07;99733.56;;;23.58;50.30
70841;BME280;58465;51.534;9.934;2023-05-22T07:01:32;99729.72;;;23.72;49.82
70841;BME280;58465;51.534;9.934;2023-05-22T07:03:58;99726.38;;;23.68;50.08
70841;BME280;58465;51.534;9.934;2023-05-22T07:06:25;99730.00;;;24.23;49.11
70841;BME280;58465;51.534;9.934;2023-05-22T07:08:52;99734.28;;;25.01;47.17
70841;BME280;58465;51.534;9.934;2023-05-22T07:11:17;99727.63;;;24.94;47.54
70841;BME280;58465;51.534;9.934;2023-05-22T07:13:43;99730.97;;;25.18;46.74
70841;BME280;58465;51.534;9.934;2023-05-22T07:16:08;99737.56;;;24.95;47.13
70841;BME280;58465;51.534;9.934;2023-05-22T07:18:33;99730.66;;;24.80;47.18
70841;BME280;58465;51.534;9.934;2023-05-22T07:20:59;99731.88;;;24.23;48.37
70841;BME280;58465;51.534;9.934;2023-05-22T07:23:24;99733.16;;;23.96;49.40
70841;BME280;58465;51.534;9.934;2023-05-22T07:25:49;99740.41;;;23.64;49.70
70841;BME280;58465;51.534;9.934;2023-05-22T07:28:15;99738.38;;;23.77;49.60
70841;BME280;58465;51.534;9.934;2023-05-22T07:30:40;99739.31;;;24.21;48.91
70841;BME280;58465;51.534;9.934;2023-05-22T07:33:06;99743.31;;;23.94;49.40
70841;BME280;58465;51.534;9.934;2023-05-22T07:35:31;99737.63;;;23.97;49.47
70841;BME280;58465;51.534;9.934;2023-05-22T07:37:56;99737.13;;;24.47;48.33
70841;BME280;58465;51.534;9.934;2023-05-22T07:40:22;99734.22;;;25.12;46.68
70841;BME280;58465;51.534;9.934;2023-05-22T07:42:47;99732.66;;;25.40;45.91
70841;BME280;58465;51.534;9.934;2023-05-22T07:45:12;99727.56;;;25.56;45.84
70841;BME280;58465;51.534;9.934;2023-05-22T07:47:38;99725.09;;;25.02;47.07
70841;BME280;58465;51.534;9.934;2023-05-22T07:50:03;99726.75;;;25.14;47.11
70841;BME280;58465;51.534;9.934;2023-05-22T07:52:30;99724.97;;;25.55;46.12
70841;BME280;58465;51.534;9.934;2023-05-22T07:54:56;99725.25;;;27.09;42.77
70841;BME280;58465;51.534;9.934;2023-05-22T07:57:21;99731.03;;;27.62;41.45
70841;BME280;58465;51.534;9.934;2023-05-22T07:59:47;99727.56;;;28.42;39.64
70841;BME280;58465;51.534;9.934;2023-05-22T08:02:13;99723.69;;;29.06;39.01
70841;BME280;58465;51.534;9.934;2023-05-22T08:04:38;99722.56;;;27.83;40.94
70841;BME280;58465;51.534;9.934;2023-05-22T08:07:04;99723.91;;;27.22;41.46
70841;BME280;58465;51.534;9.934;2023-05-22T08:09:30;99725.53;;;26.77;43.29
70841;BME280;58465;51.534;9.934;2023-05-22T08:11:55;99725.25;;;26.80;42.96
70841;BME280;58465;51.534;9.934;2023-05-22T08:14:21;99718.28;;;27.24;41.88
70841;BME280;58465;51.534;9.934;2023-05-22T08:16:46;99724.16;;;27.39;41.49
70841;BME280;58465;51.534;9.934;2023-05-22T08:19:11;99709.06;;;27.89;40.25
70841;BME280;58465;51.534;9.934;2023-05-22T08:21:38;99716.50;;;28.06;39.46
70841;BME280;58465;51.534;9.934;2023-05-22T08:24:04;99710.56;;;27.47;40.51
70841;BME280;58465;51.534;9.934;2023-05-22T08:26:30;99709.63;;;27.28;41.00
70841;BME280;58465;51.534;9.934;2023-05-22T08:28:57;99707.81;;;26.71;41.75
70841;BME280;58465;51.534;9.934;2023-05-22T08:31:22;99707.63;;;27.11;40.92
70841;BME280;58465;51.534;9.934;2023-05-22T08:33:48;99707.38;;;26.95;41.30
70841;BME280;58465;51.534;9.934;2023-05-22T08:36:13;99712.34;;;27.28;40.67
70841;BME280;58465;51.534;9.934;2023-05-22T08:38:39;99703.69;;;27.23;40.48
70841;BME280;58465;51.534;9.934;2023-05-22T08:41:06;99692.91;;;27.59;39.85
70841;BME280;58465;51.534;9.934;2023-05-22T08:43:32;99702.00;;;27.50;39.86
70841;BME280;58465;51.534;9.934;2023-05-22T08:46:04;99702.06;;;27.30;40.36
70841;BME280;58465;51.534;9.934;2023-05-22T08:48:32;99698.88;;;27.54;39.80
70841;BME280;58465;51.534;9.934;2023-05-22T08:51:03;99703.22;;;27.38;39.36
70841;BME280;58465;51.534;9.934;2023-05-22T08:53:32;99693.09;;;26.91;39.80
70841;BME280;58465;51.534;9.934;2023-05-22T08:55:58;99687.66;;;27.38;38.76
70841;BME280;58465;51.534;9.934;2023-05-22T08:58:24;99687.56;;;27.67;38.04
70841;BME280;58465;51.534;9.934;2023-05-22T09:00:51;99683.34;;;27.90;37.51
70841;BME280;58465;51.534;9.934;2023-05-22T09:03:17;99677.16;;;28.16;37.12
70841;BME280;58465;51.534;9.934;2023-05-22T09:05:45;99680.22;;;28.48;36.73
70841;BME280;58465;51.534;9.934;2023-05-22T09:08:11;99675.72;;;28.12;36.45
70841;BME280;58465;51.534;9.934;2023-05-22T09:10:36;99671.88;;;28.04;36.45
70841;BME280;58465;51.534;9.934;2023-05-22T09:13:05;99665.81;;;28.01;36.69
70841;BME280;58465;51.534;9.934;2023-05-22T09:15:32;99676.56;;;27.94;37.23
70841;BME280;58465;51.534;9.934;2023-05-22T09:17:58;99669.72;;;28.26;36.56
70841;BME280;58465;51.534;9.934;2023-05-22T09:20:24;99676.69;;;28.73;35.59
70841;BME280;58465;51.534;9.934;2023-05-22T09:22:50;99674.03;;;28.46;36.80
70841;BME280;58465;51.534;9.934;2023-05-22T09:25:19;99667.00;;;28.26;36.74
70841;BME280;58465;51.534;9.934;2023-05-22T09:27:48;99673.41;;;28.07;37.37
70841;BME280;58465;51.534;9.934;2023-05-22T09:30:15;99675.75;;;28.47;36.43
70841;BME280;58465;51.534;9.934;2023-05-22T09:32:49;99663.28;;;28.53;35.85
70841;BME280;58465;51.534;9.934;2023-05-22T09:35:15;99668.09;;;28.94;35.14
70841;BME280;58465;51.534;9.934;2023-05-22T09:37:40;99660.38;;;28.36;35.79
70841;BME280;58465;51.534;9.934;2023-05-22T09:40:07;99661.31;;;28.27;36.02
70841;BME280;58465;51.534;9.934;2023-05-22T09:42:37;99670.00;;;28.76;35.69
70841;BME280;58465;51.534;9.934;2023-05-22T09:45:04;99667.34;;;28.49;35.48
70841;BME280;58465;51.534;9.934;2023-05-22T09:47:31;99661.13;;;28.11;35.25
70841;BME280;58465;51.534;9.934;2023-05-22T09:49:59;99659.38;;;28.10;35.42
70841;BME280;58465;51.534;9.934;2023-05-22T09:52:27;99657.72;;;28.45;35.29
70841;BME280;58465;51.534;9.934;2023-05-22T09:54:55;99661.88;;;28.31;35.83
70841;BME280;58465;51.534;9.934;2023-05-22T09:57:27;99660.84;;;28.32;35.57
70841;BME280;58465;51.534;9.934;2023-05-22T09:59:56;99662.34;;;27.99;35.59
70841;BME280;58465;51.534;9.934;2023-05-22T10:02:24;99662.13;;;28.10;35.66
70841;BME280;58465;51.534;9.934;2023-05-22T10:04:51;99664.53;;;28.23;35.63
70841;BME280;58465;51.534;9.934;2023-05-22T10:07:26;99665.31;;;28.51;35.70
70841;BME280;58465;51.534;9.934;2023-05-22T10:10:07;99660.28;;;28.82;35.34
70841;BME280;58465;51.534;9.934;2023-05-22T10:12:40;99662.34;;;28.44;35.27
70841;BME280;58465;51.534;9.934;2023-05-22T10:15:09;99661.56;;;28.52;35.69
70841;BME280;58465;51.534;9.934;2023-05-22T10:17:36;99658.78;;;28.69;35.72
70841;BME280;58465;51.534;9.934;2023-05-22T10:20:02;99655.38;;;28.93;35.44
70841;BME280;58465;51.534;9.934;2023-05-22T10:22:34;99656.09;;;28.95;35.63
70841;BME280;58465;51.534;9.934;2023-05-22T10:25:01;99647.31;;;29.17;35.47
70841;BME280;58465;51.534;9.934;2023-05-22T10:27:31;99653.66;;;29.44;34.87
70841;BME280;58465;51.534;9.934;2023-05-22T10:30:19;99647.88;;;29.03;35.85
70841;BME280;58465;51.534;9.934;2023-05-22T10:32:56;99650.44;;;28.97;34.24
70841;BME280;58465;51.534;9.934;2023-05-22T10:41:04;99639.31;;;29.66;33.43
70841;BME280;58465;51.534;9.934;2023-05-22T10:43:30;99642.50;;;29.20;34.31
70841;BME280;58465;51.534;9.934;2023-05-22T10:46:03;99640.13;;;29.50;34.17
70841;BME280;58465;51.534;9.934;2023-05-22T10:48:36;99641.28;;;29.90;33.52
70841;BME280;58465;51.534;9.934;2023-05-22T10:51:05;99643.50;;;29.78;33.91
70841;BME280;58465;51.534;9.934;2023-05-22T10:53:32;99638.91;;;29.53;34.56
70841;BME280;58465;51.534;9.934;2023-05-22T10:55:58;99631.81;;;29.93;33.77
70841;BME280;58465;51.534;9.934;2023-05-22T10:58:34;99629.72;;;28.85;35.53
70841;BME280;58465;51.534;9.934;2023-05-22T11:03:53;99629.28;;;29.49;34.45
70841;BME280;58465;51.534;9.934;2023-05-22T11:06:45;99631.94;;;29.67;33.99
70841;BME280;58465;51.534;9.934;2023-05-22T11:09:27;99622.75;;;29.50;33.70
70841;BME280;58465;51.534;9.934;2023-05-22T11:17:28;99621.53;;;29.19;34.43
70841;BME280;58465;51.534;9.934;2023-05-22T11:23:10;99615.56;;;29.57;33.46
70841;BME280;58465;51.534;9.934;2023-05-22T11:25:36;99611.28;;;29.71;32.88
70841;BME280;58465;51.534;9.934;2023-05-22T11:28:03;99609.63;;;29.86;32.72
70841;BME280;58465;51.534;9.934;2023-05-22T11:30:30;99609.59;;;29.78;32.41
70841;BME280;58465;51.534;9.934;2023-05-22T11:33:04;99608.38;;;29.72;32.79
70841;BME280;58465;51.534;9.934;2023-05-22T11:35:30;99612.66;;;30.33;31.99
70841;BME280;58465;51.534;9.934;2023-05-22T11:37:56;99610.56;;;29.61;32.88
70841;BME280;58465;51.534;9.934;2023-05-22T11:40:25;99606.78;;;29.62;33.15
70841;BME280;58465;51.534;9.934;2023-05-22T11:42:53;99598.53;;;29.62;33.09
70841;BME280;58465;51.534;9.934;2023-05-22T11:45:18;99599.59;;;29.69;32.65
70841;BME280;58465;51.534;9.934;2023-05-22T11:47:44;99605.94;;;29.27;33.15
70841;BME280;58465;51.534;9.934;2023-05-22T11:50:10;99610.38;;;29.54;32.72
70841;BME280;58465;51.534;9.934;2023-05-22T11:52:41;99602.69;;;29.74;31.98
70841;BME280;58465;51.534;9.934;2023-05-22T11:55:08;99597.31;;;30.14;31.33
70841;BME280;58465;51.534;9.934;2023-05-22T11:57:34;99585.47;;;29.64;32.38
70841;BME280;58465;51.534;9.934;2023-05-22T12:00:01;99593.50;;;29.49;32.67
70841;BME280;58465;51.534;9.934;2023-05-22T12:02:31;99590.13;;;30.54;31.30
70841;BME280;58465;51.534;9.934;2023-05-22T12:04:57;99581.69;;;31.74;29.25
70841;BME280;58465;51.534;9.934;2023-05-22T12:07:26;99580.13;;;32.33;28.68
70841;BME280;58465;51.534;9.934;2023-05-22T12:09:52;99577.44;;;32.25;28.53
70841;BME280;58465;51.534;9.934;2023-05-22T12:12:19;99577.13;;;32.80;27.87
70841;BME280;58465;51.534;9.934;2023-05-22T12:14:46;99575.31;;;32.73;28.14
70841;BME280;58465;51.534;9.934;2023-05-22T12:17:12;99570.75;;;33.09;27.35
70841;BME280;58465;51.534;9.934;2023-05-22T12:19:47;99569.94;;;32.71;27.99
70841;BME280;58465;51.534;9.934;2023-05-22T12:22:16;99559.44;;;33.34;27.12
70841;BME280;58465;51.534;9.934;2023-05-22T12:24:43;99559.66;;;33.68;26.13
70841;BME280;58465;51.534;9.934;2023-05-22T12:27:12;99569.50;;;34.07;25.65
70841;BME280;58465;51.534;9.934;2023-05-22T12:29:38;99558.28;;;35.13;24.07
70841;BME280;58465;51.534;9.934;2023-05-22T12:32:07;99562.44;;;36.46;22.50
70841;BME280;58465;51.534;9.934;2023-05-22T12:34:40;99562.50;;;37.76;20.82
70841;BME280;58465;51.534;9.934;2023-05-22T12:37:19;99559.25;;;38.23;20.53
70841;BME280;58465;51.534;9.934;2023-05-22T12:39:58;99568.03;;;38.83;19.76
70841;BME280;58465;51.534;9.934;2023-05-22T12:42:24;99561.03;;;39.17;19.69
70841;BME280;58465;51.534;9.934;2023-05-22T12:44:56;99570.28;;;39.36;18.88
70841;BME280;58465;51.534;9.934;2023-05-22T12:47:24;99563.44;;;38.89;19.45
70841;BME280;58465;51.534;9.934;2023-05-22T12:49:50;99564.41;;;38.76;19.26
70841;BME280;58465;51.534;9.934;2023-05-22T12:52:15;99558.38;;;36.55;21.51
70841;BME280;58465;51.534;9.934;2023-05-22T12:54:41;99558.94;;;35.50;22.70
70841;BME280;58465;51.534;9.934;2023-05-22T12:57:06;99551.19;;;35.39;22.99
70841;BME280;58465;51.534;9.934;2023-05-22T12:59:32;99545.88;;;35.91;22.36
70841;BME280;58465;51.534;9.934;2023-05-22T13:01:58;99559.09;;;35.83;22.42
70841;BME280;58465;51.534;9.934;2023-05-22T13:04:26;99554.19;;;35.37;23.13
70841;BME280;58465;51.534;9.934;2023-05-22T13:06:52;99556.75;;;35.80;22.68
70841;BME280;58465;51.534;9.934;2023-05-22T13:09:17;99559.25;;;36.55;21.09
70841;BME280;58465;51.534;9.934;2023-05-22T13:11:43;99556.66;;;37.84;19.75
70841;BME280;58465;51.534;9.934;2023-05-22T13:14:08;99553.88;;;36.21;21.11
70841;BME280;58465;51.534;9.934;2023-05-22T13:16:33;99558.41;;;35.26;21.94
70841;BME280;58465;51.534;9.934;2023-05-22T13:18:59;99552.69;;;35.76;21.74
70841;BME280;58465;51.534;9.934;2023-05-22T13:21:24;99552.59;;;36.30;21.32
70841;BME280;58465;51.534;9.934;2023-05-22T13:23:49;99550.28;;;36.79;20.89
70841;BME280;58465;51.534;9.934;2023-05-22T13:26:15;99541.06;;;37.76;20.27
70841;BME280;58465;51.534;9.934;2023-05-22T13:28:40;99533.97;;;39.36;18.84